Time;durP1;ratioP1;P1;durP2;ratioP2;P2;SDS_P1;SDS_P2;PMS_P1;PMS_P2;Temp;Humidity;BMP_temperature;BMP_pressure;BME280_temperature;BME280_humidity;BME280_pressure;Samples;Min_cycle;Max_cycle;Signal;HPM_P1;HPM_P2
2022/07/31 00:00:43;;;;;;;2.75;1.50;;;21.10;99.90;;;;;;5037755;28;20048;-70
2022/07/31 00:03:09;;;;;;;3.38;1.60;;;21.10;99.90;;;;;;5037518;28;20080;-71
2022/07/31 00:05:35;;;;;;;2.53;1.52;;;21.10;99.90;;;;;;5037604;28;20068;-70
2022/07/31 00:08:01;;;;;;;3.80;1.40;;;21.10;99.90;;;;;;5036236;28;20045;-70
2022/07/31 00:10:27;;;;;;;4.10;1.50;;;21.00;99.90;;;;;;5037351;28;20441;-70
2022/07/31 00:12:53;;;;;;;6.13;1.70;;;21.10;99.90;;;;;;5037188;28;20112;-71
2022/07/31 00:15:19;;;;;;;3.15;1.80;;;21.10;99.90;;;;;;5036262;28;20486;-71
2022/07/31 00:17:45;;;;;;;4.75;1.80;;;21.10;99.90;;;;;;5037006;28;20442;-70
2022/07/31 00:20:13;;;;;;;3.40;1.73;;;21.10;99.90;;;;;;5037000;28;20429;-71
2022/07/31 00:22:43;;;;;;;3.72;1.58;;;21.10;99.90;;;;;;5035979;28;20120;-71
2022/07/31 00:25:10;;;;;;;2.55;1.60;;;21.10;99.90;;;;;;5036321;28;20369;-70
2022/07/31 00:27:36;;;;;;;4.15;1.75;;;21.10;99.90;;;;;;5036046;28;20033;-71
2022/07/31 00:30:03;;;;;;;6.05;1.77;;;21.10;99.90;;;;;;5036798;28;20043;-71
2022/07/31 00:32:28;;;;;;;3.22;1.63;;;21.10;99.90;;;;;;5036923;28;20049;-70
2022/07/31 00:34:54;;;;;;;4.47;1.80;;;21.10;99.90;;;;;;5036875;28;20333;-70
2022/07/31 00:37:20;;;;;;;2.78;1.50;;;21.10;99.90;;;;;;5036814;28;20111;-71
2022/07/31 00:39:46;;;;;;;2.60;1.60;;;21.00;99.90;;;;;;5036996;28;20373;-70
2022/07/31 00:42:22;;;;;;;4.05;1.80;;;21.00;99.90;;;;;;5036683;28;20037;-71
2022/07/31 00:44:48;;;;;;;5.63;1.88;;;21.00;99.90;;;;;;5037000;28;20041;-70
2022/07/31 00:47:15;;;;;;;2.22;1.35;;;21.00;99.90;;;;;;5036706;28;20065;-70
2022/07/31 00:49:40;;;;;;;4.00;1.63;;;21.00;99.90;;;;;;5036886;28;20088;-70
2022/07/31 00:52:06;;;;;;;3.33;1.50;;;21.00;99.90;;;;;;5036542;28;20049;-70
2022/07/31 00:54:32;;;;;;;4.40;1.80;;;21.00;99.90;;;;;;5035283;28;20358;-70
2022/07/31 00:56:58;;;;;;;1.75;1.50;;;21.00;99.90;;;;;;5036314;28;20044;-71
2022/07/31 00:59:24;;;;;;;3.03;1.58;;;21.00;99.90;;;;;;5036087;28;20053;-70
2022/07/31 01:01:49;;;;;;;4.40;1.80;;;21.00;99.90;;;;;;5036454;28;20037;-70
2022/07/31 01:04:17;;;;;;;3.05;1.48;;;21.00;99.90;;;;;;5036380;28;20040;-70
2022/07/31 01:06:43;;;;;;;3.25;1.52;;;20.90;99.90;;;;;;5036619;28;20116;-70
2022/07/31 01:09:09;;;;;;;2.95;1.50;;;20.90;99.90;;;;;;5036571;28;20037;-70
2022/07/31 01:11:46;;;;;;;4.70;1.52;;;20.80;99.90;;;;;;5035832;28;20453;-70
2022/07/31 01:14:14;;;;;;;3.53;1.50;;;20.70;99.90;;;;;;5036542;28;20041;-70
2022/07/31 01:16:43;;;;;;;3.70;1.50;;;20.70;99.90;;;;;;5019130;28;20052;-71
2022/07/31 01:19:31;;;;;;;4.40;1.67;;;20.60;99.90;;;;;;5036408;28;20053;-70
2022/07/31 01:22:26;;;;;;;3.65;1.80;;;20.60;99.90;;;;;;5035120;28;20041;-71
2022/07/31 01:24:57;;;;;;;3.63;1.70;;;20.50;99.90;;;;;;5036035;28;20041;-70
2022/07/31 01:27:42;;;;;;;2.92;1.35;;;20.60;99.90;;;;;;5036106;28;20120;-70
2022/07/31 01:30:09;;;;;;;4.53;1.75;;;20.50;99.90;;;;;;5036315;28;20469;-70
2022/07/31 01:32:37;;;;;;;5.03;1.70;;;20.50;99.90;;;;;;5035276;28;20381;-70
2022/07/31 01:35:13;;;;;;;4.03;2.20;;;20.50;99.90;;;;;;5036230;28;20049;-71
2022/07/31 01:37:49;;;;;;;5.13;1.90;;;20.50;99.90;;;;;;5037587;28;20049;-70
2022/07/31 01:40:19;;;;;;;5.20;1.65;;;20.40;99.90;;;;;;5040213;28;20045;-71
2022/07/31 01:42:55;;;;;;;3.75;1.77;;;20.40;99.90;;;;;;5040049;28;20091;-71
2022/07/31 01:45:23;;;;;;;4.85;2.08;;;20.40;99.90;;;;;;5040349;28;20029;-71
2022/07/31 01:47:50;;;;;;;4.40;1.75;;;20.40;99.90;;;;;;5039246;28;20103;-71
2022/07/31 01:50:16;;;;;;;4.47;1.77;;;20.40;99.90;;;;;;5039222;28;20044;-71
2022/07/31 01:52:43;;;;;;;2.95;1.75;;;20.40;99.90;;;;;;5038820;28;20045;-70
2022/07/31 01:55:11;;;;;;;2.63;1.70;;;20.40;99.90;;;;;;5038534;28;20037;-70
2022/07/31 01:57:40;;;;;;;6.65;2.08;;;20.50;99.90;;;;;;5039691;28;20037;-71
2022/07/31 02:00:08;;;;;;;3.65;1.88;;;20.50;99.90;;;;;;5039537;28;20053;-71
2022/07/31 02:02:35;;;;;;;3.28;2.10;;;20.50;99.90;;;;;;5039786;28;20048;-71
2022/07/31 02:05:06;;;;;;;2.53;1.75;;;20.60;99.90;;;;;;5039710;28;20029;-72
2022/07/31 02:07:35;;;;;;;2.92;1.90;;;20.60;99.90;;;;;;5038945;28;20065;-70
2022/07/31 02:10:01;;;;;;;4.40;1.75;;;20.60;99.90;;;;;;5039409;28;20449;-71
2022/07/31 02:12:28;;;;;;;3.75;1.80;;;20.60;99.90;;;;;;5039766;28;20095;-70
2022/07/31 02:14:55;;;;;;;4.80;2.05;;;20.60;99.90;;;;;;5038601;28;20129;-70
2022/07/31 02:17:23;;;;;;;3.55;1.90;;;20.60;99.90;;;;;;5038561;28;20053;-70
2022/07/31 02:19:51;;;;;;;4.72;2.40;;;20.60;99.90;;;;;;5039369;28;20346;-70
2022/07/31 02:22:18;;;;;;;3.58;2.03;;;20.60;99.90;;;;;;5039526;28;20128;-70
2022/07/31 02:24:44;;;;;;;4.10;2.30;;;20.60;99.90;;;;;;5038857;28;20422;-70
2022/07/31 02:27:13;;;;;;;4.60;1.63;;;20.60;99.90;;;;;;5039338;28;20033;-70
2022/07/31 02:29:40;;;;;;;4.97;2.00;;;20.60;99.90;;;;;;5039544;28;20045;-70
2022/07/31 02:32:07;;;;;;;4.05;2.05;;;20.60;99.90;;;;;;5039302;28;20041;-70
2022/07/31 02:34:34;;;;;;;4.75;2.20;;;20.70;99.90;;;;;;5039269;28;20041;-70
2022/07/31 02:37:01;;;;;;;4.13;2.20;;;20.70;99.90;;;;;;5038963;28;20109;-71
2022/07/31 02:39:29;;;;;;;4.35;1.90;;;20.70;99.90;;;;;;5038957;28;20435;-70
2022/07/31 02:41:58;;;;;;;4.90;1.90;;;20.70;99.90;;;;;;5039039;28;20041;-70
2022/07/31 02:44:25;;;;;;;4.72;1.90;;;20.70;99.90;;;;;;5021368;28;20095;-70
2022/07/31 02:46:51;;;;;;;5.03;1.90;;;20.70;99.90;;;;;;5038870;28;20319;-70
2022/07/31 02:49:18;;;;;;;2.80;1.80;;;20.80;99.90;;;;;;5038672;28;20434;-70
2022/07/31 02:51:44;;;;;;;3.33;1.88;;;20.80;99.90;;;;;;5038998;28;20044;-70
2022/07/31 02:54:09;;;;;;;2.83;2.10;;;20.70;99.90;;;;;;5038882;28;20116;-70
2022/07/31 02:56:36;;;;;;;4.05;1.80;;;20.70;99.90;;;;;;5037599;28;20120;-70
2022/07/31 02:59:03;;;;;;;3.63;1.77;;;20.80;99.90;;;;;;5037893;28;20065;-70
2022/07/31 03:01:33;;;;;;;5.15;2.10;;;20.80;99.90;;;;;;5037585;28;20056;-70
2022/07/31 03:03:59;;;;;;;5.53;2.10;;;20.70;99.90;;;;;;5037335;28;20041;-71
2022/07/31 03:06:25;;;;;;;5.30;1.90;;;20.80;99.90;;;;;;5037243;28;20041;-70
2022/07/31 03:08:50;;;;;;;2.95;1.90;;;20.80;99.90;;;;;;5037629;28;20049;-70
2022/07/31 03:11:16;;;;;;;4.13;1.92;;;20.80;99.90;;;;;;5037673;28;20041;-70
2022/07/31 03:13:43;;;;;;;6.47;2.05;;;20.80;99.90;;;;;;5037581;28;20037;-70
2022/07/31 03:16:10;;;;;;;8.65;2.10;;;20.80;99.90;;;;;;5036336;28;20042;-71
2022/07/31 03:18:38;;;;;;;3.92;2.03;;;20.70;99.90;;;;;;5036253;28;20354;-71
2022/07/31 03:21:04;;;;;;;3.65;2.08;;;20.70;99.90;;;;;;5037064;28;20037;-71
2022/07/31 03:23:35;;;;;;;4.55;1.95;;;20.70;99.90;;;;;;5036985;28;20449;-71
2022/07/31 03:26:01;;;;;;;5.13;2.08;;;20.80;99.90;;;;;;5036929;28;20045;-71
2022/07/31 03:28:27;;;;;;;5.57;1.90;;;20.80;99.90;;;;;;5037278;28;20061;-70
2022/07/31 03:30:54;;;;;;;2.70;1.90;;;20.70;99.90;;;;;;5037394;28;20422;-71
2022/07/31 03:33:21;;;;;;;2.92;1.98;;;20.70;99.90;;;;;;5036770;28;20378;-71
2022/07/31 03:35:47;;;;;;;3.80;2.05;;;20.70;99.90;;;;;;5037058;28;20463;-70
2022/07/31 03:38:12;;;;;;;4.88;1.90;;;20.70;99.90;;;;;;5037004;28;20049;-70
2022/07/31 03:40:38;;;;;;;3.90;1.77;;;20.70;99.90;;;;;;5037045;28;20034;-71
2022/07/31 03:43:05;;;;;;;3.22;1.75;;;20.60;99.90;;;;;;5035759;28;20109;-71
2022/07/31 03:45:33;;;;;;;7.30;2.05;;;20.60;99.90;;;;;;5036987;28;20049;-71
2022/07/31 03:47:59;;;;;;;3.47;1.70;;;20.60;99.90;;;;;;5037009;28;20041;-70
2022/07/31 03:50:25;;;;;;;5.55;1.77;;;20.60;99.90;;;;;;5036922;28;20116;-70
2022/07/31 03:52:51;;;;;;;4.72;2.13;;;20.50;99.90;;;;;;5036744;28;20045;-70
2022/07/31 03:55:17;;;;;;;3.28;1.88;;;20.40;99.90;;;;;;5036231;28;20469;-70
2022/07/31 03:57:44;;;;;;;4.60;2.08;;;20.40;99.90;;;;;;5035691;28;20115;-71
2022/07/31 04:00:10;;;;;;;3.20;1.98;;;20.40;99.90;;;;;;4999188;28;1091111;-70
2022/07/31 04:02:36;;;;;;;3.88;2.13;;;20.30;99.90;;;;;;5037440;28;20426;-71
2022/07/31 04:05:03;;;;;;;6.35;1.90;;;20.30;99.90;;;;;;5037654;28;20047;-70
2022/07/31 04:07:28;;;;;;;3.00;2.20;;;20.20;99.90;;;;;;5037485;28;20040;-70
2022/07/31 04:09:54;;;;;;;4.50;2.15;;;20.30;99.90;;;;;;5037310;28;20033;-70
2022/07/31 04:12:20;;;;;;;5.00;2.20;;;20.20;99.90;;;;;;5036602;28;20053;-70
2022/07/31 04:14:46;;;;;;;4.55;2.58;;;20.30;99.90;;;;;;5037484;28;20037;-70
2022/07/31 04:17:11;;;;;;;2.88;1.80;;;20.30;99.90;;;;;;5037109;28;20042;-71
2022/07/31 04:19:38;;;;;;;3.92;2.03;;;20.30;99.90;;;;;;5036104;28;20124;-71
2022/07/31 04:22:04;;;;;;;3.47;1.92;;;20.40;99.90;;;;;;5037138;28;20050;-70
2022/07/31 04:24:29;;;;;;;2.88;1.90;;;20.40;99.90;;;;;;5035896;28;20052;-71
2022/07/31 04:26:56;;;;;;;5.45;2.25;;;20.40;99.90;;;;;;5036671;28;20033;-70
2022/07/31 04:29:22;;;;;;;4.15;2.13;;;20.50;99.90;;;;;;5037028;28;20418;-70
2022/07/31 04:31:47;;;;;;;4.57;2.67;;;20.50;99.90;;;;;;5036827;28;20037;-71
2022/07/31 04:34:13;;;;;;;3.17;1.95;;;20.50;99.90;;;;;;5036858;28;20108;-71
2022/07/31 04:36:39;;;;;;;3.17;2.17;;;20.50;99.90;;;;;;5036066;28;20124;-71
2022/07/31 04:39:04;;;;;;;6.05;2.25;;;20.60;99.90;;;;;;5036827;28;20073;-70
2022/07/31 04:41:30;;;;;;;5.63;2.42;;;20.60;99.90;;;;;;5036751;28;20045;-70
2022/07/31 04:43:56;;;;;;;4.53;2.22;;;20.70;99.90;;;;;;5036556;28;20052;-70
2022/07/31 04:46:23;;;;;;;5.25;2.47;;;20.70;99.90;;;;;;5036606;28;20120;-72
2022/07/31 04:48:49;;;;;;;2.60;1.95;;;20.70;99.90;;;;;;5036978;28;20040;-70
2022/07/31 04:51:20;;;;;;;4.63;2.00;;;20.70;99.90;;;;;;5035460;28;20041;-70
2022/07/31 04:53:46;;;;;;;5.07;2.20;;;20.70;99.90;;;;;;5036891;28;20045;-70
2022/07/31 04:58:59;;;;;;;4.27;1.93;;;20.80;99.90;;;;;;5036471;28;20136;-72
2022/07/31 05:01:25;;;;;;;5.13;2.05;;;20.80;99.90;;;;;;5036534;28;20088;-70
2022/07/31 05:03:50;;;;;;;5.07;2.42;;;20.80;99.90;;;;;;5036302;28;20467;-71
2022/07/31 05:06:16;;;;;;;3.60;2.00;;;20.90;99.90;;;;;;5035793;28;20038;-70
2022/07/31 05:08:42;;;;;;;3.35;2.20;;;20.70;99.90;;;;;;5036517;28;20398;-70
2022/07/31 05:11:21;;;;;;;4.82;2.10;;;20.70;99.90;;;;;;5036268;28;20120;-70
2022/07/31 05:13:50;;;;;;;4.97;2.60;;;20.70;99.90;;;;;;5035766;28;20048;-70
2022/07/31 05:16:16;;;;;;;7.22;2.50;;;20.70;99.90;;;;;;5036684;28;20037;-70
2022/07/31 05:18:44;;;;;;;4.47;2.33;;;20.60;99.90;;;;;;5036367;28;20381;-71
2022/07/31 05:21:10;;;;;;;4.65;2.47;;;20.60;99.90;;;;;;5036504;28;20055;-70
2022/07/31 05:23:37;;;;;;;3.92;2.67;;;20.70;99.90;;;;;;5036523;28;20077;-71
2022/07/31 05:26:04;;;;;;;4.45;2.22;;;20.70;99.90;;;;;;5035900;28;20042;-71
2022/07/31 05:28:30;;;;;;;6.47;2.75;;;20.90;99.90;;;;;;5036506;28;20043;-70
2022/07/31 05:30:55;;;;;;;6.35;2.85;;;20.80;99.90;;;;;;5036125;28;20373;-71
2022/07/31 05:33:21;;;;;;;3.90;2.30;;;20.80;99.90;;;;;;5036556;28;20095;-71
2022/07/31 05:35:47;;;;;;;5.68;2.72;;;20.70;99.90;;;;;;5036153;28;20053;-70
2022/07/31 05:38:12;;;;;;;5.82;2.60;;;20.80;99.90;;;;;;5036404;28;20059;-70
2022/07/31 05:40:38;;;;;;;3.83;2.70;;;20.70;99.90;;;;;;5035989;28;20448;-71
2022/07/31 05:43:04;;;;;;;5.85;3.65;;;20.80;99.90;;;;;;5036160;28;20037;-71
2022/07/31 05:45:29;;;;;;;9.05;3.17;;;20.80;99.90;;;;;;5018589;28;20071;-70
2022/07/31 05:47:55;;;;;;;7.00;3.05;;;20.80;99.90;;;;;;5035163;28;20334;-70
2022/07/31 05:50:21;;;;;;;6.22;3.30;;;20.70;99.90;;;;;;5035495;28;20046;-70
2022/07/31 05:52:48;;;;;;;7.38;3.60;;;20.70;99.90;;;;;;5034911;28;20464;-70
2022/07/31 05:55:14;;;;;;;7.20;3.10;;;20.80;99.90;;;;;;5034710;28;20076;-71
2022/07/31 05:57:40;;;;;;;5.72;3.42;;;20.70;99.90;;;;;;5035965;28;20037;-70
2022/07/31 06:00:07;;;;;;;7.03;4.05;;;20.70;99.90;;;;;;5035776;28;20065;-71
2022/07/31 06:02:34;;;;;;;6.35;3.55;;;20.70;99.90;;;;;;5036064;28;20048;-70
2022/07/31 06:05:01;;;;;;;5.85;3.10;;;20.70;99.90;;;;;;5034759;28;20390;-70
2022/07/31 06:07:26;;;;;;;6.60;3.63;;;20.70;99.90;;;;;;5035132;28;20377;-70
2022/07/31 06:09:52;;;;;;;6.05;3.67;;;20.70;99.90;;;;;;5035930;28;20056;-71
2022/07/31 06:12:18;;;;;;;6.45;3.45;;;20.70;99.90;;;;;;5034824;28;20033;-71
2022/07/31 06:14:44;;;;;;;5.20;3.47;;;20.80;99.90;;;;;;5035706;28;20087;-72
2022/07/31 06:17:10;;;;;;;8.27;4.05;;;20.70;99.90;;;;;;5036091;28;20045;-71
2022/07/31 06:19:36;;;;;;;5.78;3.58;;;20.70;99.90;;;;;;5035770;28;20041;-71
2022/07/31 06:22:02;;;;;;;6.28;3.85;;;20.80;99.90;;;;;;5035947;28;20361;-71
2022/07/31 06:24:27;;;;;;;6.80;4.30;;;20.90;99.90;;;;;;5037805;28;20037;-70
2022/07/31 06:27:01;;;;;;;9.80;3.78;;;21.00;99.90;;;;;;5038999;28;20049;-70
2022/07/31 06:29:27;;;;;;;7.35;4.13;;;20.90;99.90;;;;;;5039229;28;20403;-70
2022/07/31 06:31:56;;;;;;;8.15;4.43;;;21.00;99.90;;;;;;5039070;28;20048;-70
2022/07/31 06:34:22;;;;;;;6.75;3.97;;;21.00;99.90;;;;;;5039430;28;20037;-70
2022/07/31 06:36:48;;;;;;;6.55;3.85;;;21.10;99.90;;;;;;5038996;28;20388;-71
2022/07/31 06:39:15;;;;;;;7.07;3.83;;;21.20;99.90;;;;;;5039000;28;20053;-71
2022/07/31 06:41:44;;;;;;;5.07;4.13;;;21.30;99.90;;;;;;5039213;28;20039;-71
2022/07/31 06:44:10;;;;;;;7.20;4.18;;;21.40;99.90;;;;;;5038926;28;20103;-71
2022/07/31 06:46:36;;;;;;;7.05;4.40;;;21.50;99.90;;;;;;5021372;28;20069;-71
2022/07/31 06:49:02;;;;;;;9.52;4.30;;;21.60;99.90;;;;;;5021442;28;20124;-70
2022/07/31 06:51:28;;;;;;;6.93;4.30;;;21.40;99.90;;;;;;5038719;28;20045;-71
2022/07/31 06:53:53;;;;;;;7.13;4.60;;;21.30;99.90;;;;;;5038863;28;20037;-71
2022/07/31 06:56:19;;;;;;;9.02;4.30;;;21.30;99.90;;;;;;5038288;28;20342;-70
2022/07/31 06:58:45;;;;;;;8.02;4.18;;;21.40;99.90;;;;;;5037680;28;20049;-70
2022/07/31 07:01:11;;;;;;;5.78;4.70;;;21.50;99.90;;;;;;5038052;28;20053;-70
2022/07/31 07:03:36;;;;;;;10.23;4.47;;;21.40;99.90;;;;;;5037556;28;20088;-70
2022/07/31 07:06:02;;;;;;;8.43;4.63;;;21.40;99.90;;;;;;5037762;28;20045;-71
2022/07/31 07:08:28;;;;;;;8.85;4.55;;;21.60;99.90;;;;;;5038724;28;20087;-70
2022/07/31 07:10:54;;;;;;;7.18;4.40;;;21.60;99.90;;;;;;5037572;28;20037;-70
2022/07/31 07:13:20;;;;;;;8.38;4.80;;;21.60;99.90;;;;;;5038373;28;20388;-70
2022/07/31 07:15:45;;;;;;;7.57;4.55;;;21.70;99.90;;;;;;5037203;28;20050;-70
2022/07/31 07:18:11;;;;;;;6.68;4.38;;;21.70;99.90;;;;;;5037588;28;20033;-70
2022/07/31 07:20:37;;;;;;;5.90;4.25;;;21.70;99.90;;;;;;5038039;28;20128;-71
2022/07/31 07:23:03;;;;;;;6.80;3.85;;;21.80;99.90;;;;;;5038424;28;20045;-70
2022/07/31 07:25:29;;;;;;;7.47;4.70;;;21.80;99.90;;;;;;5037527;28;20067;-70
2022/07/31 07:27:55;;;;;;;8.35;5.20;;;21.80;99.90;;;;;;5038466;28;20037;-71
2022/07/31 07:30:22;;;;;;;6.55;4.32;;;21.70;99.90;;;;;;5037331;28;20330;-70
2022/07/31 07:32:48;;;;;;;7.22;4.22;;;21.90;99.90;;;;;;5038174;28;20072;-70
2022/07/31 07:35:13;;;;;;;8.60;5.00;;;22.00;99.90;;;;;;5035886;28;20103;-70
2022/07/31 07:37:40;;;;;;;7.72;5.03;;;22.00;99.90;;;;;;5038044;28;20029;-70
2022/07/31 07:40:07;;;;;;;10.68;4.60;;;22.10;99.90;;;;;;5038148;28;20077;-71
2022/07/31 07:42:33;;;;;;;8.30;4.93;;;22.20;99.90;;;;;;5037689;28;20481;-70
2022/07/31 07:44:59;;;;;;;5.65;4.13;;;22.20;99.90;;;;;;5036946;28;20121;-70
2022/07/31 07:47:24;;;;;;;6.35;4.63;;;22.20;99.90;;;;;;5037867;28;20029;-70
2022/07/31 07:49:50;;;;;;;6.38;4.28;;;22.30;99.90;;;;;;5037833;28;20410;-72
2022/07/31 07:52:16;;;;;;;9.80;4.63;;;22.40;99.90;;;;;;5036715;28;20506;-71
2022/07/31 07:54:42;;;;;;;6.75;4.00;;;22.50;99.90;;;;;;5037719;28;20038;-71
2022/07/31 07:57:19;;;;;;;10.43;5.50;;;22.60;99.90;;;;;;5036364;28;20046;-70
2022/07/31 07:59:45;;;;;;;8.95;4.90;;;22.70;99.90;;;;;;5037361;28;20053;-70
2022/07/31 08:02:11;;;;;;;9.82;5.30;;;22.80;99.90;;;;;;5037786;28;20052;-70
2022/07/31 08:04:37;;;;;;;7.15;4.90;;;22.90;99.90;;;;;;5036134;28;20410;-70
2022/07/31 08:07:03;;;;;;;7.40;5.50;;;22.90;99.90;;;;;;5036604;28;20045;-70
2022/07/31 08:09:30;;;;;;;12.90;5.90;;;23.10;99.90;;;;;;5037287;28;20049;-70
2022/07/31 08:11:56;;;;;;;8.90;5.60;;;23.20;99.90;;;;;;5037373;28;20041;-69
2022/07/31 08:14:22;;;;;;;8.35;6.15;;;23.30;99.90;;;;;;5036205;28;20056;-68
2022/07/31 08:16:47;;;;;;;11.18;6.07;;;23.30;99.90;;;;;;5037144;28;20046;-71
2022/07/31 08:19:13;;;;;;;9.10;6.22;;;23.30;99.90;;;;;;5036997;28;20056;-71
2022/07/31 08:21:39;;;;;;;9.20;5.30;;;23.40;99.90;;;;;;5028136;28;20037;-72
2022/07/31 08:24:05;;;;;;;9.75;5.50;;;23.60;99.90;;;;;;5026595;28;20046;-70
2022/07/31 08:27:22;;;;;;;8.93;6.28;;;23.60;99.90;;;;;;5036506;28;20041;-69
2022/07/31 08:29:17;;;;;;;8.93;5.93;;;23.50;99.90;;;;;;5018053;28;20095;-70
2022/07/31 08:31:42;;;;;;;8.93;5.45;;;23.40;99.90;;;;;;5017185;28;20444;-71
2022/07/31 08:34:08;;;;;;;8.43;5.78;;;23.50;99.90;;;;;;5036074;28;20045;-70
2022/07/31 08:36:34;;;;;;;8.00;5.78;;;23.40;99.90;;;;;;5037123;28;20042;-70
2022/07/31 08:39:02;;;;;;;8.68;5.28;;;23.50;99.90;;;;;;5032771;28;20038;-71
2022/07/31 08:41:28;;;;;;;9.15;4.90;;;23.60;99.90;;;;;;5025425;28;20037;-71
2022/07/31 08:43:57;;;;;;;11.55;5.55;;;23.70;99.90;;;;;;5036607;28;20141;-71
2022/07/31 08:46:23;;;;;;;9.77;4.95;;;23.60;99.90;;;;;;5024514;28;20041;-72
2022/07/31 08:48:53;;;;;;;7.93;5.22;;;23.60;99.90;;;;;;5033371;28;20063;-72
2022/07/31 08:51:21;;;;;;;15.10;5.65;;;23.80;99.90;;;;;;5025687;28;20449;-69
2022/07/31 08:53:50;;;;;;;10.15;4.80;;;23.80;99.90;;;;;;5016722;28;20103;-70
2022/07/31 08:56:16;;;;;;;12.40;5.15;;;23.80;99.90;;;;;;5028931;28;20037;-69
2022/07/31 08:58:43;;;;;;;9.38;4.72;;;23.80;99.90;;;;;;5020156;28;20041;-70
2022/07/31 09:01:11;;;;;;;10.38;5.05;;;23.70;99.90;;;;;;5028759;28;20037;-75
2022/07/31 09:03:37;;;;;;;6.90;5.20;;;23.70;99.90;;;;;;5036286;28;20362;-69
2022/07/31 09:06:04;;;;;;;10.90;5.22;;;23.60;99.90;;;;;;5026467;28;20040;-69
2022/07/31 09:08:34;;;;;;;10.98;5.63;;;23.60;99.90;;;;;;5031194;28;20140;-69
2022/07/31 09:11:09;;;;;;;9.93;7.07;;;23.40;99.90;;;;;;5035851;28;20037;-69
2022/07/31 09:13:35;;;;;;;11.55;6.43;;;23.30;99.90;;;;;;5036132;28;20056;-69
2022/07/31 09:16:02;;;;;;;9.10;6.20;;;23.10;99.90;;;;;;5035071;28;20049;-70
2022/07/31 09:18:28;;;;;;;11.30;6.70;;;23.10;99.90;;;;;;5035485;28;20041;-70
2022/07/31 09:20:59;;;;;;;13.48;8.00;;;23.10;99.90;;;;;;5036176;28;20034;-69
2022/07/31 09:23:26;;;;;;;12.23;8.38;;;22.90;99.90;;;;;;5030335;28;20049;-69
2022/07/31 09:25:58;;;;;;;13.15;7.25;;;22.90;99.90;;;;;;5014713;28;20419;-69
2022/07/31 09:28:35;;;;;;;13.95;8.20;;;22.80;99.90;;;;;;5027351;28;20033;-69
2022/07/31 09:31:02;;;;;;;12.13;7.78;;;22.90;99.90;;;;;;5036118;28;20041;-69
2022/07/31 09:33:29;;;;;;;11.23;8.25;;;23.00;99.90;;;;;;5036227;28;20041;-70
2022/07/31 09:35:56;;;;;;;13.13;8.60;;;23.00;99.90;;;;;;5035421;28;20049;-70
2022/07/31 09:38:33;;;;;;;13.68;9.07;;;23.10;99.90;;;;;;5034815;28;20042;-71
2022/07/31 09:41:13;;;;;;;12.52;9.70;;;22.80;99.90;;;;;;5036269;28;20038;-70
2022/07/31 09:43:39;;;;;;;13.98;9.50;;;22.80;99.90;;;;;;5034916;28;20125;-70
2022/07/31 09:46:06;;;;;;;13.27;9.93;;;22.70;99.90;;;;;;5036366;28;20084;-70
2022/07/31 09:48:33;;;;;;;13.32;9.98;;;22.70;99.90;;;;;;5035992;28;20041;-70
2022/07/31 09:51:04;;;;;;;16.73;11.30;;;22.60;99.90;;;;;;5036078;28;20048;-70
2022/07/31 09:53:40;;;;;;;14.70;10.35;;;22.50;99.90;;;;;;5036081;28;20361;-70
2022/07/31 09:56:07;;;;;;;15.48;10.05;;;22.50;99.90;;;;;;5034406;28;20044;-70
2022/07/31 09:58:32;;;;;;;16.75;11.60;;;22.60;99.90;;;;;;5036776;28;20061;-70
2022/07/31 10:01:00;;;;;;;16.75;10.40;;;22.50;99.90;;;;;;5039880;28;20045;-70
2022/07/31 10:03:26;;;;;;;17.95;11.57;;;22.60;99.90;;;;;;5039765;28;20330;-70
2022/07/31 10:05:54;;;;;;;17.67;11.75;;;22.40;99.90;;;;;;5039702;28;20045;-70
2022/07/31 10:08:21;;;;;;;17.77;12.77;;;22.40;99.90;;;;;;5039621;28;20053;-70
2022/07/31 10:10:48;;;;;;;14.48;11.02;;;22.40;99.90;;;;;;5039510;28;20056;-70
2022/07/31 10:13:15;;;;;;;15.57;10.27;;;22.30;99.90;;;;;;5038503;28;20048;-70
2022/07/31 10:15:45;;;;;;;17.48;13.00;;;22.30;99.90;;;;;;5039498;28;20052;-70
2022/07/31 10:18:11;;;;;;;15.23;12.00;;;22.40;99.90;;;;;;5038280;28;20152;-69
2022/07/31 10:20:40;;;;;;;18.83;11.93;;;22.40;99.90;;;;;;5039672;28;20080;-70
2022/07/31 10:23:15;;;;;;;16.13;11.88;;;22.30;99.90;;;;;;5039644;28;20047;-68
2022/07/31 10:25:50;;;;;;;17.40;12.52;;;22.40;99.90;;;;;;5037896;28;20326;-69
2022/07/31 10:28:16;;;;;;;17.92;13.15;;;22.30;99.90;;;;;;5039329;28;20038;-69
2022/07/31 10:30:44;;;;;;;18.30;13.27;;;22.30;99.90;;;;;;5039218;28;20073;-70
2022/07/31 10:33:10;;;;;;;20.35;13.60;;;22.30;99.90;;;;;;5039370;28;20342;-69
2022/07/31 10:35:56;;;;;;;18.75;14.05;;;22.40;99.90;;;;;;5039190;28;20044;-69
2022/07/31 10:38:42;;;;;;;20.90;14.88;;;22.40;99.90;;;;;;5039139;28;20422;-70
2022/07/31 10:41:33;;;;;;;19.23;14.52;;;22.40;99.90;;;;;;5039188;28;20046;-70
2022/07/31 10:44:08;;;;;;;21.30;14.02;;;22.50;99.90;;;;;;5039346;28;20045;-70
2022/07/31 10:46:34;;;;;;;16.65;13.30;;;22.50;99.90;;;;;;5038218;28;20029;-69
2022/07/31 10:49:00;;;;;;;18.88;13.25;;;22.40;99.90;;;;;;5037816;28;20037;-69
2022/07/31 10:51:26;;;;;;;16.52;12.95;;;22.40;99.90;;;;;;5037742;28;20099;-69
2022/07/31 10:53:57;;;;;;;19.23;14.93;;;22.40;99.90;;;;;;5038856;28;20037;-69
2022/07/31 10:56:24;;;;;;;22.55;15.70;;;22.30;99.90;;;;;;5038718;28;20045;-69
2022/07/31 10:58:54;;;;;;;19.42;13.73;;;22.10;99.90;;;;;;5038470;28;20085;-68
2022/07/31 11:01:21;;;;;;;21.58;13.55;;;22.10;99.90;;;;;;5038630;28;20438;-68
2022/07/31 11:03:51;;;;;;;23.23;15.63;;;22.00;99.90;;;;;;5038456;28;20060;-69
2022/07/31 11:06:17;;;;;;;23.23;16.30;;;22.10;99.90;;;;;;5038678;28;20041;-69
2022/07/31 11:08:52;;;;;;;17.90;13.93;;;22.00;99.90;;;;;;5038543;28;20041;-69
2022/07/31 11:11:31;;;;;;;21.57;14.73;;;22.10;99.90;;;;;;5037821;28;20056;-68
2022/07/31 11:13:58;;;;;;;18.08;13.25;;;22.10;99.90;;;;;;5038526;28;20435;-68
2022/07/31 11:16:26;;;;;;;18.00;14.38;;;22.00;99.90;;;;;;5038214;28;20438;-70
2022/07/31 11:19:05;;;;;;;18.23;13.95;;;21.90;99.90;;;;;;5038298;28;20053;-69
2022/07/31 11:21:40;;;;;;;20.05;14.45;;;21.90;99.90;;;;;;5038436;28;20049;-70
2022/07/31 11:24:17;;;;;;;20.83;15.82;;;22.00;99.90;;;;;;5038025;28;20041;-69
2022/07/31 11:26:54;;;;;;;24.90;17.60;;;22.00;99.90;;;;;;5036671;28;20041;-69
2022/07/31 11:29:35;;;;;;;26.15;17.08;;;22.00;99.90;;;;;;5037298;28;20187;-69
2022/07/31 11:32:04;;;;;;;22.73;16.48;;;21.80;99.90;;;;;;5037369;28;20046;-69
2022/07/31 11:34:46;;;;;;;30.58;21.98;;;21.60;99.90;;;;;;5038168;28;20335;-69
2022/07/31 11:37:17;;;;;;;24.85;18.52;;;21.70;99.90;;;;;;5036884;28;20041;-69
2022/07/31 11:39:43;;;;;;;23.10;16.50;;;21.70;99.90;;;;;;5037493;28;20108;-69
2022/07/31 11:42:09;;;;;;;21.75;16.25;;;21.70;99.90;;;;;;5038012;28;20442;-69
2022/07/31 11:44:35;;;;;;;20.67;15.75;;;21.60;99.90;;;;;;5038004;28;20046;-69
2022/07/31 11:47:00;;;;;;;20.73;16.13;;;21.50;99.90;;;;;;5037861;28;20041;-69
2022/07/31 11:49:27;;;;;;;18.88;15.05;;;21.50;99.90;;;;;;5037945;28;20037;-69
2022/07/31 11:52:00;;;;;;;23.50;16.83;;;21.50;99.90;;;;;;5037640;28;20095;-69
2022/07/31 11:54:27;;;;;;;20.83;15.68;;;21.40;99.90;;;;;;5037675;28;20046;-69
2022/07/31 11:56:54;;;;;;;20.58;15.50;;;21.30;99.90;;;;;;5036498;28;20045;-69
2022/07/31 11:59:34;;;;;;;27.48;19.63;;;21.20;99.90;;;;;;5037363;28;20084;-67
2022/07/31 12:02:06;;;;;;;20.05;15.73;;;21.20;99.90;;;;;;5037479;28;20077;-67
2022/07/31 12:04:35;;;;;;;19.20;15.77;;;21.20;99.90;;;;;;5037264;28;20045;-67
2022/07/31 12:07:01;;;;;;;22.73;17.23;;;21.40;99.90;;;;;;5036616;28;20048;-67
2022/07/31 12:09:27;;;;;;;26.58;17.80;;;21.30;99.90;;;;;;5037664;28;20051;-67
2022/07/31 12:11:53;;;;;;;20.40;16.73;;;21.20;99.90;;;;;;5037412;28;20037;-67
2022/07/31 12:14:28;;;;;;;23.13;18.90;;;21.30;99.90;;;;;;5037541;28;20124;-67
2022/07/31 12:16:54;;;;;;;28.75;22.15;;;21.40;99.90;;;;;;5037081;28;20044;-67
2022/07/31 12:19:34;;;;;;;26.98;20.45;;;21.40;99.90;;;;;;5037341;28;20442;-67
2022/07/31 12:22:10;;;;;;;24.30;18.08;;;21.20;99.90;;;;;;5036811;28;20042;-66
2022/07/31 12:24:38;;;;;;;22.30;16.70;;;20.90;99.90;;;;;;5036298;28;20041;-66
2022/07/31 12:27:04;;;;;;;22.70;15.80;;;20.90;99.90;;;;;;5035955;28;20037;-66
2022/07/31 12:29:36;;;;;;;21.55;16.02;;;20.70;99.90;;;;;;5037073;28;20060;-66
2022/07/31 12:32:02;;;;;;;27.95;19.20;;;20.50;99.90;;;;;;5037185;28;20038;-66
2022/07/31 12:34:31;;;;;;;29.02;17.77;;;20.20;99.90;;;;;;5036912;28;20421;-66
2022/07/31 12:37:04;;;;;;;24.40;17.20;;;20.30;99.90;;;;;;5036904;28;20337;-66
2022/07/31 12:39:49;;;;;;;22.60;16.25;;;20.20;99.90;;;;;;5037007;28;20084;-66
2022/07/31 12:42:33;;;;;;;24.75;18.00;;;20.30;99.90;;;;;;5036793;28;20438;-66
2022/07/31 12:45:01;;;;;;;23.88;16.05;;;20.40;99.90;;;;;;5037082;28;20099;-66
2022/07/31 12:47:32;;;;;;;22.77;16.58;;;20.50;99.90;;;;;;5036714;28;20034;-66